sensor_id;sensor_type;location;lat;lon;timestamp;P1;durP1;ratioP1;P2;durP2;ratioP2
48789;SDS011;41718;51.980;5.734;2023-06-24T00:01:13;8.05;;;5.50;;
48789;SDS011;41718;51.980;5.734;2023-06-24T00:06:15;6.97;;;5.57;;
48789;SDS011;41718;51.980;5.734;2023-06-24T00:11:28;5.65;;;5.07;;
48789;SDS011;41718;51.980;5.734;2023-06-24T00:16:33;6.22;;;5.32;;
48789;SDS011;41718;51.980;5.734;2023-06-24T00:21:34;6.28;;;5.65;;
48789;SDS011;41718;51.980;5.734;2023-06-24T00:26:38;7.38;;;5.53;;
48789;SDS011;41718;51.980;5.734;2023-06-24T00:31:40;9.82;;;6.45;;
48789;SDS011;41718;51.980;5.734;2023-06-24T00:36:42;6.53;;;5.75;;
48789;SDS011;41718;51.980;5.734;2023-06-24T00:41:45;5.82;;;5.32;;
48789;SDS011;41718;51.980;5.734;2023-06-24T00:46:47;8.57;;;4.93;;
48789;SDS011;41718;51.980;5.734;2023-06-24T00:51:54;8.80;;;5.80;;
48789;SDS011;41718;51.980;5.734;2023-06-24T00:57:03;8.50;;;6.38;;
48789;SDS011;41718;51.980;5.734;2023-06-24T01:02:27;7.43;;;6.20;;
48789;SDS011;41718;51.980;5.734;2023-06-24T01:07:41;7.85;;;5.18;;
48789;SDS011;41718;51.980;5.734;2023-06-24T01:12:49;6.65;;;6.00;;
48789;SDS011;41718;51.980;5.734;2023-06-24T01:34:32;7.90;;;6.60;;
48789;SDS011;41718;51.980;5.734;2023-06-24T01:39:45;7.60;;;6.43;;
48789;SDS011;41718;51.980;5.734;2023-06-24T01:44:49;11.15;;;7.55;;
48789;SDS011;41718;51.980;5.734;2023-06-24T01:49:52;11.82;;;8.40;;
48789;SDS011;41718;51.980;5.734;2023-06-24T01:54:57;12.40;;;7.35;;
48789;SDS011;41718;51.980;5.734;2023-06-24T02:00:09;11.00;;;7.43;;
48789;SDS011;41718;51.980;5.734;2023-06-24T02:05:15;12.00;;;7.45;;
48789;SDS011;41718;51.980;5.734;2023-06-24T02:10:20;9.57;;;6.82;;
48789;SDS011;41718;51.980;5.734;2023-06-24T02:15:22;13.38;;;7.80;;
48789;SDS011;41718;51.980;5.734;2023-06-24T02:25:31;12.95;;;8.50;;
48789;SDS011;41718;51.980;5.734;2023-06-24T02:30:37;9.18;;;7.35;;
48789;SDS011;41718;51.980;5.734;2023-06-24T02:35:40;9.55;;;6.82;;
48789;SDS011;41718;51.980;5.734;2023-06-24T02:40:47;9.70;;;7.13;;
48789;SDS011;41718;51.980;5.734;2023-06-24T02:45:55;6.53;;;5.82;;
48789;SDS011;41718;51.980;5.734;2023-06-24T02:50:58;9.77;;;7.03;;
48789;SDS011;41718;51.980;5.734;2023-06-24T02:56:06;7.53;;;6.20;;
48789;SDS011;41718;51.980;5.734;2023-06-24T03:01:09;7.22;;;6.07;;
48789;SDS011;41718;51.980;5.734;2023-06-24T03:06:12;7.70;;;6.55;;
48789;SDS011;41718;51.980;5.734;2023-06-24T03:11:14;7.82;;;6.63;;
48789;SDS011;41718;51.980;5.734;2023-06-24T03:16:16;8.77;;;7.18;;
48789;SDS011;41718;51.980;5.734;2023-06-24T03:21:18;8.93;;;6.15;;
48789;SDS011;41718;51.980;5.734;2023-06-24T03:26:19;7.63;;;6.60;;
48789;SDS011;41718;51.980;5.734;2023-06-24T03:31:21;9.98;;;7.13;;
48789;SDS011;41718;51.980;5.734;2023-06-24T03:36:24;7.50;;;6.55;;
48789;SDS011;41718;51.980;5.734;2023-06-24T03:41:26;7.00;;;6.30;;
48789;SDS011;41718;51.980;5.734;2023-06-24T03:46:27;8.10;;;6.63;;
48789;SDS011;41718;51.980;5.734;2023-06-24T03:51:34;9.77;;;7.38;;
48789;SDS011;41718;51.980;5.734;2023-06-24T03:56:35;11.55;;;7.50;;
48789;SDS011;41718;51.980;5.734;2023-06-24T04:01:37;11.63;;;7.90;;
48789;SDS011;41718;51.980;5.734;2023-06-24T04:06:38;8.15;;;6.53;;
48789;SDS011;41718;51.980;5.734;2023-06-24T04:11:40;9.88;;;7.28;;
48789;SDS011;41718;51.980;5.734;2023-06-24T04:16:45;9.00;;;6.45;;
48789;SDS011;41718;51.980;5.734;2023-06-24T04:21:46;8.15;;;6.57;;
48789;SDS011;41718;51.980;5.734;2023-06-24T04:26:48;9.10;;;7.63;;
48789;SDS011;41718;51.980;5.734;2023-06-24T04:31:55;8.75;;;6.57;;
48789;SDS011;41718;51.980;5.734;2023-06-24T04:36:56;10.70;;;7.53;;
48789;SDS011;41718;51.980;5.734;2023-06-24T04:41:58;9.98;;;6.88;;
48789;SDS011;41718;51.980;5.734;2023-06-24T04:46:59;12.25;;;7.95;;
48789;SDS011;41718;51.980;5.734;2023-06-24T04:52:01;10.80;;;6.78;;
48789;SDS011;41718;51.980;5.734;2023-06-24T04:57:05;7.68;;;6.88;;
48789;SDS011;41718;51.980;5.734;2023-06-24T05:02:11;10.95;;;7.70;;
48789;SDS011;41718;51.980;5.734;2023-06-24T05:07:13;13.20;;;8.95;;
48789;SDS011;41718;51.980;5.734;2023-06-24T05:12:15;13.48;;;8.77;;
48789;SDS011;41718;51.980;5.734;2023-06-24T05:17:16;14.52;;;10.38;;
48789;SDS011;41718;51.980;5.734;2023-06-24T05:22:18;14.45;;;8.90;;
48789;SDS011;41718;51.980;5.734;2023-06-24T05:27:19;15.75;;;10.02;;
48789;SDS011;41718;51.980;5.734;2023-06-24T05:32:21;13.15;;;9.93;;
48789;SDS011;41718;51.980;5.734;2023-06-24T05:37:23;11.48;;;7.68;;
48789;SDS011;41718;51.980;5.734;2023-06-24T05:42:24;13.07;;;9.18;;
48789;SDS011;41718;51.980;5.734;2023-06-24T05:47:27;10.90;;;8.25;;
48789;SDS011;41718;51.980;5.734;2023-06-24T05:52:31;16.60;;;10.30;;
48789;SDS011;41718;51.980;5.734;2023-06-24T05:57:32;13.55;;;9.50;;
48789;SDS011;41718;51.980;5.734;2023-06-24T06:02:34;18.23;;;11.23;;
48789;SDS011;41718;51.980;5.734;2023-06-24T06:07:36;12.63;;;8.75;;
48789;SDS011;41718;51.980;5.734;2023-06-24T06:12:40;12.82;;;9.70;;
48789;SDS011;41718;51.980;5.734;2023-06-24T06:17:42;16.10;;;7.53;;
48789;SDS011;41718;51.980;5.734;2023-06-24T06:22:43;18.20;;;8.27;;
48789;SDS011;41718;51.980;5.734;2023-06-24T06:27:45;14.02;;;7.68;;
48789;SDS011;41718;51.980;5.734;2023-06-24T06:32:47;9.32;;;6.82;;
48789;SDS011;41718;51.980;5.734;2023-06-24T06:37:48;12.00;;;7.75;;
48789;SDS011;41718;51.980;5.734;2023-06-24T06:42:57;11.70;;;7.47;;
48789;SDS011;41718;51.980;5.734;2023-06-24T06:47:58;10.82;;;8.50;;
48789;SDS011;41718;51.980;5.734;2023-06-24T06:53:11;9.18;;;6.20;;
48789;SDS011;41718;51.980;5.734;2023-06-24T06:58:21;9.45;;;7.07;;
48789;SDS011;41718;51.980;5.734;2023-06-24T07:03:41;9.25;;;6.15;;
48789;SDS011;41718;51.980;5.734;2023-06-24T07:08:46;7.85;;;5.97;;
48789;SDS011;41718;51.980;5.734;2023-06-24T07:13:48;9.93;;;5.80;;
48789;SDS011;41718;51.980;5.734;2023-06-24T07:18:52;6.78;;;5.70;;
48789;SDS011;41718;51.980;5.734;2023-06-24T07:23:53;5.05;;;4.35;;
48789;SDS011;41718;51.980;5.734;2023-06-24T07:28:58;8.95;;;6.38;;
48789;SDS011;41718;51.980;5.734;2023-06-24T07:34:09;8.55;;;5.32;;
48789;SDS011;41718;51.980;5.734;2023-06-24T07:39:12;4.60;;;3.20;;
48789;SDS011;41718;51.980;5.734;2023-06-24T07:44:17;4.50;;;3.55;;
48789;SDS011;41718;51.980;5.734;2023-06-24T07:49:20;8.60;;;4.80;;
48789;SDS011;41718;51.980;5.734;2023-06-24T07:54:21;6.00;;;4.60;;
48789;SDS011;41718;51.980;5.734;2023-06-24T07:59:23;3.40;;;2.90;;
48789;SDS011;41718;51.980;5.734;2023-06-24T08:04:26;4.28;;;3.05;;
48789;SDS011;41718;51.980;5.734;2023-06-24T08:09:28;6.22;;;4.20;;
48789;SDS011;41718;51.980;5.734;2023-06-24T08:14:29;3.30;;;2.50;;
48789;SDS011;41718;51.980;5.734;2023-06-24T08:19:31;4.30;;;2.72;;
48789;SDS011;41718;51.980;5.734;2023-06-24T08:24:36;3.40;;;3.00;;
48789;SDS011;41718;51.980;5.734;2023-06-24T08:29:42;4.22;;;3.15;;
48789;SDS011;41718;51.980;5.734;2023-06-24T08:34:46;5.00;;;3.13;;
48789;SDS011;41718;51.980;5.734;2023-06-24T08:39:48;5.28;;;3.20;;
48789;SDS011;41718;51.980;5.734;2023-06-24T08:44:49;5.75;;;4.05;;
48789;SDS011;41718;51.980;5.734;2023-06-24T08:50:04;4.72;;;3.85;;
48789;SDS011;41718;51.980;5.734;2023-06-24T08:55:10;5.22;;;4.15;;
48789;SDS011;41718;51.980;5.734;2023-06-24T09:00:14;4.38;;;3.70;;
48789;SDS011;41718;51.980;5.734;2023-06-24T09:05:16;4.25;;;3.45;;
48789;SDS011;41718;51.980;5.734;2023-06-24T09:15:33;3.70;;;2.90;;
48789;SDS011;41718;51.980;5.734;2023-06-24T09:25:42;5.07;;;4.07;;
48789;SDS011;41718;51.980;5.734;2023-06-24T09:30:44;4.78;;;3.75;;
48789;SDS011;41718;51.980;5.734;2023-06-24T09:35:46;5.13;;;4.47;;
48789;SDS011;41718;51.980;5.734;2023-06-24T09:40:48;4.80;;;4.13;;
48789;SDS011;41718;51.980;5.734;2023-06-24T09:45:59;6.45;;;5.00;;
48789;SDS011;41718;51.980;5.734;2023-06-24T09:51:03;6.13;;;5.15;;
48789;SDS011;41718;51.980;5.734;2023-06-24T09:56:07;8.77;;;6.32;;
48789;SDS011;41718;51.980;5.734;2023-06-24T10:01:11;7.70;;;5.45;;
48789;SDS011;41718;51.980;5.734;2023-06-24T10:06:14;11.10;;;5.25;;
48789;SDS011;41718;51.980;5.734;2023-06-24T10:11:16;9.70;;;6.10;;
48789;SDS011;41718;51.980;5.734;2023-06-24T10:16:17;6.25;;;5.32;;
48789;SDS011;41718;51.980;5.734;2023-06-24T10:21:25;7.67;;;5.00;;
48789;SDS011;41718;51.980;5.734;2023-06-24T10:26:52;7.07;;;4.72;;
48789;SDS011;41718;51.980;5.734;2023-06-24T10:47:45;4.63;;;4.22;;
48789;SDS011;41718;51.980;5.734;2023-06-24T10:52:53;6.88;;;5.20;;
48789;SDS011;41718;51.980;5.734;2023-06-24T10:58:16;5.10;;;4.32;;
48789;SDS011;41718;51.980;5.734;2023-06-24T11:03:19;7.05;;;5.07;;
48789;SDS011;41718;51.980;5.734;2023-06-24T11:08:23;4.43;;;3.90;;
48789;SDS011;41718;51.980;5.734;2023-06-24T11:13:33;6.22;;;4.60;;
48789;SDS011;41718;51.980;5.734;2023-06-24T11:18:45;6.03;;;5.18;;
48789;SDS011;41718;51.980;5.734;2023-06-24T11:23:48;6.28;;;5.68;;
48789;SDS011;41718;51.980;5.734;2023-06-24T11:28:53;6.32;;;4.50;;
48789;SDS011;41718;51.980;5.734;2023-06-24T11:33:55;4.07;;;3.63;;
48789;SDS011;41718;51.980;5.734;2023-06-24T11:39:03;5.38;;;4.47;;
48789;SDS011;41718;51.980;5.734;2023-06-24T11:44:05;6.40;;;4.55;;
48789;SDS011;41718;51.980;5.734;2023-06-24T11:49:09;5.45;;;4.15;;
48789;SDS011;41718;51.980;5.734;2023-06-24T11:54:20;4.82;;;3.67;;
48789;SDS011;41718;51.980;5.734;2023-06-24T11:59:26;3.63;;;3.30;;
48789;SDS011;41718;51.980;5.734;2023-06-24T12:04:32;5.50;;;4.78;;
48789;SDS011;41718;51.980;5.734;2023-06-24T12:09:39;6.30;;;4.75;;
48789;SDS011;41718;51.980;5.734;2023-06-24T12:14:41;5.88;;;4.32;;
48789;SDS011;41718;51.980;5.734;2023-06-24T12:19:47;5.55;;;4.95;;
48789;SDS011;41718;51.980;5.734;2023-06-24T12:24:49;4.63;;;3.90;;
48789;SDS011;41718;51.980;5.734;2023-06-24T12:29:53;4.55;;;3.78;;
48789;SDS011;41718;51.980;5.734;2023-06-24T12:35:06;3.47;;;3.17;;
48789;SDS011;41718;51.980;5.734;2023-06-24T12:40:13;7.30;;;4.80;;
48789;SDS011;41718;51.980;5.734;2023-06-24T12:45:27;6.47;;;4.28;;
48789;SDS011;41718;51.980;5.734;2023-06-24T12:50:33;5.60;;;4.20;;
48789;SDS011;41718;51.980;5.734;2023-06-24T12:55:37;6.35;;;4.53;;
48789;SDS011;41718;51.980;5.734;2023-06-24T13:00:44;4.25;;;3.90;;
48789;SDS011;41718;51.980;5.734;2023-06-24T13:05:55;4.53;;;3.28;;
48789;SDS011;41718;51.980;5.734;2023-06-24T13:11:00;6.05;;;4.10;;
48789;SDS011;41718;51.980;5.734;2023-06-24T13:16:04;4.93;;;4.43;;
48789;SDS011;41718;51.980;5.734;2023-06-24T13:21:06;3.90;;;3.20;;
48789;SDS011;41718;51.980;5.734;2023-06-24T13:26:16;4.18;;;3.85;;
48789;SDS011;41718;51.980;5.734;2023-06-24T13:31:18;4.45;;;4.05;;
48789;SDS011;41718;51.980;5.734;2023-06-24T13:36:32;4.07;;;3.67;;
48789;SDS011;41718;51.980;5.734;2023-06-24T13:41:40;5.03;;;3.60;;
48789;SDS011;41718;51.980;5.734;2023-06-24T13:46:42;4.22;;;3.40;;
48789;SDS011;41718;51.980;5.734;2023-06-24T13:51:47;4.30;;;3.47;;
48789;SDS011;41718;51.980;5.734;2023-06-24T13:56:57;5.00;;;3.88;;
48789;SDS011;41718;51.980;5.734;2023-06-24T14:01:59;5.53;;;3.20;;
48789;SDS011;41718;51.980;5.734;2023-06-24T14:07:02;5.20;;;4.30;;
48789;SDS011;41718;51.980;5.734;2023-06-24T14:12:13;5.32;;;3.95;;
48789;SDS011;41718;51.980;5.734;2023-06-24T14:17:15;7.82;;;3.72;;
48789;SDS011;41718;51.980;5.734;2023-06-24T14:22:30;4.13;;;3.67;;
48789;SDS011;41718;51.980;5.734;2023-06-24T14:27:34;6.20;;;3.78;;
48789;SDS011;41718;51.980;5.734;2023-06-24T14:32:38;5.40;;;3.22;;
48789;SDS011;41718;51.980;5.734;2023-06-24T14:37:40;4.07;;;3.70;;
48789;SDS011;41718;51.980;5.734;2023-06-24T14:42:43;3.85;;;3.35;;
48789;SDS011;41718;51.980;5.734;2023-06-24T14:47:46;6.53;;;3.28;;
48789;SDS011;41718;51.980;5.734;2023-06-24T14:52:51;4.13;;;3.67;;
48789;SDS011;41718;51.980;5.734;2023-06-24T14:57:57;3.83;;;3.30;;
48789;SDS011;41718;51.980;5.734;2023-06-24T15:03:04;5.10;;;4.03;;
48789;SDS011;41718;51.980;5.734;2023-06-24T15:08:08;4.35;;;3.95;;
48789;SDS011;41718;51.980;5.734;2023-06-24T15:13:22;5.07;;;4.25;;
48789;SDS011;41718;51.980;5.734;2023-06-24T15:18:24;5.47;;;4.00;;
48789;SDS011;41718;51.980;5.734;2023-06-24T15:23:33;5.15;;;3.60;;
48789;SDS011;41718;51.980;5.734;2023-06-24T15:28:58;5.85;;;4.05;;
48789;SDS011;41718;51.980;5.734;2023-06-24T15:34:05;5.03;;;4.30;;
48789;SDS011;41718;51.980;5.734;2023-06-24T15:39:19;4.57;;;4.15;;
48789;SDS011;41718;51.980;5.734;2023-06-24T15:44:35;4.78;;;3.95;;
48789;SDS011;41718;51.980;5.734;2023-06-24T15:49:37;5.43;;;4.40;;
48789;SDS011;41718;51.980;5.734;2023-06-24T15:54:46;6.63;;;3.83;;
48789;SDS011;41718;51.980;5.734;2023-06-24T15:59:52;4.40;;;4.00;;
48789;SDS011;41718;51.980;5.734;2023-06-24T16:04:55;5.45;;;4.78;;
48789;SDS011;41718;51.980;5.734;2023-06-24T16:09:58;6.38;;;4.60;;
48789;SDS011;41718;51.980;5.734;2023-06-24T16:15:07;5.28;;;4.53;;
48789;SDS011;41718;51.980;5.734;2023-06-24T16:20:12;4.82;;;3.70;;
48789;SDS011;41718;51.980;5.734;2023-06-24T16:25:52;4.45;;;4.05;;
48789;SDS011;41718;51.980;5.734;2023-06-24T16:31:49;4.80;;;3.25;;
48789;SDS011;41718;51.980;5.734;2023-06-24T16:37:03;9.02;;;4.25;;
48789;SDS011;41718;51.980;5.734;2023-06-24T16:42:05;7.73;;;3.87;;
48789;SDS011;41718;51.980;5.734;2023-06-24T16:47:13;4.90;;;4.43;;
48789;SDS011;41718;51.980;5.734;2023-06-24T16:52:31;3.42;;;3.13;;
48789;SDS011;41718;51.980;5.734;2023-06-24T16:57:34;4.47;;;4.07;;
48789;SDS011;41718;51.980;5.734;2023-06-24T17:03:02;6.10;;;4.53;;
48789;SDS011;41718;51.980;5.734;2023-06-24T17:08:18;4.60;;;3.97;;
48789;SDS011;41718;51.980;5.734;2023-06-24T17:13:24;4.47;;;3.05;;
48789;SDS011;41718;51.980;5.734;2023-06-24T17:18:49;4.28;;;3.20;;
48789;SDS011;41718;51.980;5.734;2023-06-24T17:24:05;4.40;;;3.42;;
48789;SDS011;41718;51.980;5.734;2023-06-24T17:29:08;4.53;;;3.88;;
48789;SDS011;41718;51.980;5.734;2023-06-24T17:34:10;4.35;;;3.95;;
48789;SDS011;41718;51.980;5.734;2023-06-24T17:39:12;6.10;;;3.77;;
48789;SDS011;41718;51.980;5.734;2023-06-24T17:44:13;3.65;;;2.83;;
48789;SDS011;41718;51.980;5.734;2023-06-24T17:49:15;3.40;;;3.05;;
48789;SDS011;41718;51.980;5.734;2023-06-24T17:54:16;3.63;;;3.30;;
48789;SDS011;41718;51.980;5.734;2023-06-24T17:59:18;3.65;;;3.35;;
48789;SDS011;41718;51.980;5.734;2023-06-24T18:04:20;4.60;;;3.83;;
48789;SDS011;41718;51.980;5.734;2023-06-24T18:09:21;5.00;;;3.45;;
48789;SDS011;41718;51.980;5.734;2023-06-24T18:14:24;4.55;;;3.67;;
48789;SDS011;41718;51.980;5.734;2023-06-24T18:19:26;3.10;;;2.90;;
48789;SDS011;41718;51.980;5.734;2023-06-24T18:24:28;3.42;;;3.13;;
48789;SDS011;41718;51.980;5.734;2023-06-24T18:29:30;4.78;;;3.47;;
48789;SDS011;41718;51.980;5.734;2023-06-24T18:34:34;3.92;;;3.63;;
48789;SDS011;41718;51.980;5.734;2023-06-24T18:39:35;3.70;;;3.33;;
48789;SDS011;41718;51.980;5.734;2023-06-24T18:44:37;4.60;;;3.35;;
48789;SDS011;41718;51.980;5.734;2023-06-24T18:49:41;5.40;;;3.78;;
48789;SDS011;41718;51.980;5.734;2023-06-24T18:54:45;4.30;;;3.90;;
48789;SDS011;41718;51.980;5.734;2023-06-24T19:00:04;4.07;;;3.67;;
48789;SDS011;41718;51.980;5.734;2023-06-24T19:05:09;6.82;;;3.92;;
48789;SDS011;41718;51.980;5.734;2023-06-24T19:10:11;4.68;;;4.18;;
48789;SDS011;41718;51.980;5.734;2023-06-24T19:15:30;4.65;;;3.88;;
48789;SDS011;41718;51.980;5.734;2023-06-24T19:20:40;4.28;;;3.88;;
48789;SDS011;41718;51.980;5.734;2023-06-24T19:26:02;4.88;;;4.38;;
48789;SDS011;41718;51.980;5.734;2023-06-24T19:31:10;7.38;;;4.13;;
48789;SDS011;41718;51.980;5.734;2023-06-24T19:36:18;4.65;;;4.20;;
48789;SDS011;41718;51.980;5.734;2023-06-24T19:41:26;6.20;;;4.50;;
48789;SDS011;41718;51.980;5.734;2023-06-24T19:46:35;5.05;;;4.30;;
48789;SDS011;41718;51.980;5.734;2023-06-24T19:51:48;11.40;;;4.57;;
48789;SDS011;41718;51.980;5.734;2023-06-24T19:56:58;4.75;;;3.72;;
48789;SDS011;41718;51.980;5.734;2023-06-24T20:02:18;4.45;;;4.05;;
48789;SDS011;41718;51.980;5.734;2023-06-24T20:07:24;5.18;;;4.68;;
48789;SDS011;41718;51.980;5.734;2023-06-24T20:12:27;4.85;;;3.95;;
48789;SDS011;41718;51.980;5.734;2023-06-24T20:17:30;6.97;;;5.00;;
48789;SDS011;41718;51.980;5.734;2023-06-24T20:22:32;7.38;;;4.38;;
48789;SDS011;41718;51.980;5.734;2023-06-24T20:27:37;5.05;;;4.53;;
48789;SDS011;41718;51.980;5.734;2023-06-24T20:37:51;6.82;;;4.63;;
48789;SDS011;41718;51.980;5.734;2023-06-24T20:42:56;5.80;;;4.78;;
48789;SDS011;41718;51.980;5.734;2023-06-24T20:48:34;5.40;;;4.60;;
48789;SDS011;41718;51.980;5.734;2023-06-24T20:53:39;5.60;;;5.10;;
48789;SDS011;41718;51.980;5.734;2023-06-24T20:58:51;7.78;;;5.20;;
48789;SDS011;41718;51.980;5.734;2023-06-24T21:04:05;7.40;;;5.50;;
48789;SDS011;41718;51.980;5.734;2023-06-24T21:09:07;7.32;;;5.78;;
48789;SDS011;41718;51.980;5.734;2023-06-24T21:14:09;5.75;;;4.70;;
48789;SDS011;41718;51.980;5.734;2023-06-24T21:19:11;6.78;;;5.63;;
48789;SDS011;41718;51.980;5.734;2023-06-24T21:24:13;6.22;;;5.63;;
48789;SDS011;41718;51.980;5.734;2023-06-24T21:29:14;7.32;;;6.10;;
48789;SDS011;41718;51.980;5.734;2023-06-24T21:34:16;7.28;;;5.15;;
48789;SDS011;41718;51.980;5.734;2023-06-24T21:39:17;6.97;;;5.63;;
48789;SDS011;41718;51.980;5.734;2023-06-24T21:44:19;8.00;;;5.43;;
48789;SDS011;41718;51.980;5.734;2023-06-24T21:49:20;6.15;;;4.97;;
48789;SDS011;41718;51.980;5.734;2023-06-24T21:54:22;6.10;;;5.25;;
48789;SDS011;41718;51.980;5.734;2023-06-24T21:59:27;8.07;;;5.50;;
48789;SDS011;41718;51.980;5.734;2023-06-24T22:04:30;8.38;;;7.00;;
48789;SDS011;41718;51.980;5.734;2023-06-24T22:09:34;8.35;;;6.80;;
48789;SDS011;41718;51.980;5.734;2023-06-24T22:14:38;9.23;;;6.50;;
48789;SDS011;41718;51.980;5.734;2023-06-24T22:19:42;8.57;;;5.83;;
48789;SDS011;41718;51.980;5.734;2023-06-24T22:24:46;13.27;;;6.77;;
48789;SDS011;41718;51.980;5.734;2023-06-24T22:29:51;7.47;;;6.20;;
48789;SDS011;41718;51.980;5.734;2023-06-24T22:34:53;9.15;;;6.63;;
48789;SDS011;41718;51.980;5.734;2023-06-24T22:39:55;8.82;;;6.38;;
48789;SDS011;41718;51.980;5.734;2023-06-24T22:44:57;8.40;;;7.03;;
48789;SDS011;41718;51.980;5.734;2023-06-24T22:50:02;7.67;;;6.20;;
48789;SDS011;41718;51.980;5.734;2023-06-24T22:55:12;8.50;;;6.50;;
48789;SDS011;41718;51.980;5.734;2023-06-24T23:00:18;8.57;;;6.45;;
48789;SDS011;41718;51.980;5.734;2023-06-24T23:05:31;10.50;;;6.40;;
48789;SDS011;41718;51.980;5.734;2023-06-24T23:10:33;9.18;;;6.10;;
48789;SDS011;41718;51.980;5.734;2023-06-24T23:15:43;10.13;;;6.40;;
48789;SDS011;41718;51.980;5.734;2023-06-24T23:20:46;11.50;;;6.47;;
48789;SDS011;41718;51.980;5.734;2023-06-24T23:25:51;13.90;;;6.93;;
48789;SDS011;41718;51.980;5.734;2023-06-24T23:30:53;7.55;;;6.35;;
48789;SDS011;41718;51.980;5.734;2023-06-24T23:35:58;10.00;;;7.22;;
48789;SDS011;41718;51.980;5.734;2023-06-24T23:41:00;11.50;;;7.10;;
48789;SDS011;41718;51.980;5.734;2023-06-24T23:46:05;6.28;;;5.63;;
48789;SDS011;41718;51.980;5.734;2023-06-24T23:51:07;8.10;;;6.65;;
48789;SDS011;41718;51.980;5.734;2023-06-24T23:56:08;7.72;;;6.35;;
